Time;durP1;ratioP1;P1;durP2;ratioP2;P2;SDS_P1;SDS_P2;PMS_P1;PMS_P2;Temp;Humidity;BMP_temperature;BMP_pressure;BME280_temperature;BME280_humidity;BME280_pressure;Samples;Min_cycle;Max_cycle;Signal;HPM_P1;HPM_P2
2022/01/18 00:00:50;;;;;;;41.40;9.13;;;;;;;;;;5110117;28;20040;-90
2022/01/18 00:03:16;;;;;;;43.35;7.57;;;;;;;;;;5076067;28;20047;-91
2022/01/18 00:05:44;;;;;;;38.83;7.57;;;;;;;;;;5075437;28;20079;-89
2022/01/18 00:08:11;;;;;;;44.38;9.07;;;;;;;;;;5111560;28;20105;-90
2022/01/18 00:10:37;;;;;;;37.92;9.38;;;;;;;;;;5075548;28;20058;-87
2022/01/18 00:15:43;;;;;;;40.10;9.38;;;;;;;;;;5075394;28;20490;-90
2022/01/18 00:18:13;;;;;;;38.65;8.95;;;;;;;;;;5058996;28;20047;-88
2022/01/18 00:20:56;;;;;;;47.70;8.95;;;;;;;;;;5076149;28;20043;-88
2022/01/18 00:23:23;;;;;;;36.83;9.25;;;;;;;;;;5077514;28;20039;-90
2022/01/18 00:25:53;;;;;;;34.92;8.68;;;;;;;;;;5074887;28;20052;-90
2022/01/18 00:28:20;;;;;;;36.38;7.57;;;;;;;;;;5058559;28;20043;-91
2022/01/18 00:31:20;;;;;;;36.97;8.05;;;;;;;;;;5075408;28;20075;-91
2022/01/18 00:33:52;;;;;;;32.67;7.57;;;;;;;;;;5075524;28;20054;-90
2022/01/18 00:36:40;;;;;;;44.00;8.82;;;;;;;;;;5058447;28;20459;-90
2022/01/18 00:39:08;;;;;;;43.80;8.65;;;;;;;;;;5074713;28;20044;-88
2022/01/18 00:41:35;;;;;;;36.20;7.45;;;;;;;;;;5074620;28;20036;-90
2022/01/18 00:44:01;;;;;;;35.15;7.15;;;;;;;;;;5075747;28;20495;-90
2022/01/18 00:46:28;;;;;;;33.83;7.30;;;;;;;;;;5075508;28;20403;-87
2022/01/18 00:48:56;;;;;;;40.60;8.10;;;;;;;;;;5076269;28;20510;-87
2022/01/18 00:51:22;;;;;;;34.25;7.38;;;;;;;;;;5074802;28;20435;-90
2022/01/18 00:53:48;;;;;;;44.38;8.85;;;;;;;;;;5057680;28;20051;-88
2022/01/18 00:56:24;;;;;;;45.47;7.78;;;;;;;;;;5058692;28;20510;-88
2022/01/18 00:58:51;;;;;;;32.78;7.65;;;;;;;;;;5074967;28;20127;-87
2022/01/18 01:01:18;;;;;;;39.00;8.35;;;;;;;;;;5058093;28;20122;-87
2022/01/18 01:03:45;;;;;;;44.65;9.57;;;;;;;;;;5057447;28;20043;-90
2022/01/18 01:06:11;;;;;;;37.53;8.70;;;;;;;;;;5074599;28;20502;-87
2022/01/18 01:08:38;;;;;;;34.97;7.45;;;;;;;;;;5074431;28;20042;-89
2022/01/18 01:11:05;;;;;;;40.83;9.20;;;;;;;;;;5057450;28;20411;-88
2022/01/18 01:13:32;;;;;;;37.70;8.90;;;;;;;;;;5109193;28;20601;-89
2022/01/18 01:41:47;;;;;;;39.97;8.38;;;;;;;;;;5074920;28;20036;-89
2022/01/18 01:43:26;;;;;;;42.10;8.60;;;;;;;;;;5111301;28;20218;-89
2022/01/18 01:45:53;;;;;;;39.15;8.85;;;;;;;;;;5114090;28;20075;-87
2022/01/18 01:48:20;;;;;;;40.97;8.57;;;;;;;;;;5062128;28;20131;-86
2022/01/18 01:50:51;;;;;;;46.78;9.05;;;;;;;;;;5115118;28;20043;-89
2022/01/18 01:53:18;;;;;;;59.95;10.25;;;;;;;;;;5111605;28;20040;-89
2022/01/18 01:55:45;;;;;;;40.50;8.95;;;;;;;;;;5114278;28;20032;-91
2022/01/18 01:58:11;;;;;;;43.60;8.85;;;;;;;;;;5112608;28;20399;-89
2022/01/18 02:00:43;;;;;;;32.85;8.13;;;;;;;;;;5112931;28;20035;-89
2022/01/18 02:03:09;;;;;;;44.85;9.77;;;;;;;;;;5112698;28;20052;-88
2022/01/18 02:05:35;;;;;;;40.63;9.75;;;;;;;;;;5062312;28;20043;-91
2022/01/18 02:08:01;;;;;;;44.03;9.02;;;;;;;;;;5061276;28;20043;-89
2022/01/18 02:10:28;;;;;;;45.97;10.02;;;;;;;;;;5061424;28;20086;-88
2022/01/18 02:12:54;;;;;;;49.10;9.45;;;;;;;;;;5101497;28;20064;-89
2022/01/18 02:15:20;;;;;;;45.78;9.15;;;;;;;;;;5091183;28;20044;-90
2022/01/18 02:23:20;;;;;;;52.90;9.85;;;;;;;;;;5054807;28;20051;-89
2022/01/18 02:25:47;;;;;;;34.33;8.73;;;;;;;;;;5055399;28;20045;-91
2022/01/18 02:28:13;;;;;;;37.70;8.85;;;;;;;;;;5055705;28;20036;-90
2022/01/18 02:30:40;;;;;;;47.60;8.75;;;;;;;;;;5073063;28;20086;-88
2022/01/18 02:33:06;;;;;;;43.28;9.30;;;;;;;;;;5086604;28;20398;-91
2022/01/18 02:35:36;;;;;;;36.42;7.63;;;;;;;;;;5059464;28;20527;-90
2022/01/18 02:38:03;;;;;;;35.92;8.82;;;;;;;;;;5075279;28;20036;-89
2022/01/18 02:40:30;;;;;;;39.25;8.35;;;;;;;;;;5066126;28;20476;-88
2022/01/18 02:42:59;;;;;;;36.33;8.13;;;;;;;;;;5039600;28;20036;-88
2022/01/18 02:45:25;;;;;;;40.88;7.95;;;;;;;;;;5054729;28;20036;-88
2022/01/18 02:47:52;;;;;;;40.75;9.00;;;;;;;;;;5056193;28;20055;-89
2022/01/18 02:50:19;;;;;;;35.00;8.18;;;;;;;;;;5049198;28;20044;-90
2022/01/18 02:52:45;;;;;;;44.92;8.68;;;;;;;;;;5061530;28;20045;-90
2022/01/18 02:55:11;;;;;;;31.42;7.32;;;;;;;;;;5053933;28;20068;-89
2022/01/18 02:57:52;;;;;;;35.33;8.02;;;;;;;;;;5055701;28;20036;-88
2022/01/18 03:00:27;;;;;;;32.67;8.38;;;;;;;;;;5072642;28;20044;-88
2022/01/18 03:03:16;;;;;;;28.98;7.07;;;;;;;;;;5072971;28;20403;-89
2022/01/18 03:05:43;;;;;;;28.42;6.90;;;;;;;;;;5055667;28;20132;-89
2022/01/18 03:08:10;;;;;;;28.02;6.13;;;;;;;;;;5066290;28;20429;-89
2022/01/18 03:10:40;;;;;;;26.05;6.47;;;;;;;;;;5060333;28;20468;-90
2022/01/18 03:13:06;;;;;;;37.25;7.57;;;;;;;;;;5058543;28;20048;-89
2022/01/18 03:15:34;;;;;;;34.72;7.25;;;;;;;;;;5067501;28;20033;-88
2022/01/18 03:18:01;;;;;;;27.58;6.72;;;;;;;;;;5044362;28;20033;-89
2022/01/18 03:20:28;;;;;;;35.85;6.70;;;;;;;;;;5035000;28;20041;-89
2022/01/18 03:22:54;;;;;;;29.85;6.32;;;;;;;;;;5036525;28;20037;-88
2022/01/18 03:28:06;;;;;;;28.02;6.32;;;;;;;;;;5068204;28;20056;-88
2022/01/18 03:30:33;;;;;;;24.05;6.15;;;;;;;;;;5070344;28;20039;-87
2022/01/18 03:33:00;;;;;;;27.10;5.15;;;;;;;;;;5076060;28;20040;-88
2022/01/18 03:35:29;;;;;;;29.00;6.15;;;;;;;;;;5058035;28;20097;-93
2022/01/18 03:37:55;;;;;;;26.05;5.85;;;;;;;;;;5074080;28;20116;-87
2022/01/18 03:40:22;;;;;;;20.15;4.70;;;;;;;;;;5041138;28;20116;-89
2022/01/18 03:42:49;;;;;;;22.80;5.97;;;;;;;;;;5071430;28;20040;-88
2022/01/18 03:45:24;;;;;;;29.48;5.93;;;;;;;;;;5061719;28;20044;-88
2022/01/18 03:47:51;;;;;;;25.63;6.22;;;;;;;;;;5111480;28;20407;-89
2022/01/18 03:50:18;;;;;;;29.35;6.00;;;;;;;;;;5039766;28;20106;-89
2022/01/18 03:52:45;;;;;;;21.85;6.32;;;;;;;;;;5069154;28;20488;-89
2022/01/18 03:55:13;;;;;;;25.55;5.57;;;;;;;;;;5062589;28;20419;-89
2022/01/18 03:57:39;;;;;;;22.38;5.07;;;;;;;;;;5057334;28;20039;-90
2022/01/18 04:00:08;;;;;;;20.77;6.63;;;;;;;;;;5058262;28;20055;-90
2022/01/18 04:02:34;;;;;;;27.35;6.75;;;;;;;;;;5057916;28;20126;-88
2022/01/18 04:05:01;;;;;;;25.60;6.25;;;;;;;;;;5107554;28;20039;-90
2022/01/18 04:07:27;;;;;;;21.42;5.40;;;;;;;;;;5108765;28;20714;-92
2022/01/18 04:09:53;;;;;;;23.58;5.28;;;;;;;;;;5090209;28;20036;-89
2022/01/18 04:12:19;;;;;;;20.50;5.20;;;;;;;;;;5073809;28;20507;-88
2022/01/18 04:14:45;;;;;;;19.27;4.95;;;;;;;;;;5056564;28;20100;-90
2022/01/18 04:17:29;;;;;;;18.33;5.35;;;;;;;;;;5073928;28;20036;-87
2022/01/18 04:28:23;;;;;;;24.80;4.70;;;;;;;;;;5108903;28;20040;-87
2022/01/18 04:30:50;;;;;;;23.98;4.88;;;;;;;;;;5074883;28;20123;-87
2022/01/18 04:33:16;;;;;;;22.65;4.85;;;;;;;;;;5074905;28;20119;-88
2022/01/18 04:35:42;;;;;;;26.13;5.00;;;;;;;;;;5076852;28;20545;-87
2022/01/18 04:38:09;;;;;;;20.10;4.35;;;;;;;;;;5074401;28;20036;-87
2022/01/18 04:40:39;;;;;;;21.30;4.68;;;;;;;;;;5075937;28;20126;-88
2022/01/18 04:43:39;;;;;;;18.33;4.50;;;;;;;;;;5074690;28;20487;-87
2022/01/18 04:48:50;;;;;;;20.30;4.32;;;;;;;;;;5062907;28;20036;-88
2022/01/18 04:51:16;;;;;;;18.27;4.57;;;;;;;;;;5073555;28;20043;-87
2022/01/18 04:53:50;;;;;;;22.55;4.32;;;;;;;;;;5074569;28;20093;-88
2022/01/18 04:56:19;;;;;;;16.80;3.47;;;;;;;;;;5057917;28;20089;-88
2022/01/18 04:58:45;;;;;;;17.30;3.80;;;;;;;;;;5074410;28;20314;-87
2022/01/18 05:01:12;;;;;;;17.35;3.63;;;;;;;;;;5055143;28;20048;-87
2022/01/18 05:03:39;;;;;;;21.75;4.20;;;;;;;;;;5061144;28;20059;-87
2022/01/18 05:06:12;;;;;;;15.82;3.25;;;;;;;;;;5074180;28;20036;-88
2022/01/18 05:08:39;;;;;;;24.75;4.40;;;;;;;;;;5056971;28;20080;-88
2022/01/18 05:11:06;;;;;;;16.35;3.70;;;;;;;;;;5073766;28;20060;-87
2022/01/18 05:19:08;;;;;;;18.80;3.78;;;;;;;;;;5112050;28;19937;-88
2022/01/18 05:24:01;;;;;;;14.82;3.28;;;;;;;;;;5093256;28;20071;-88
2022/01/18 05:26:28;;;;;;;15.40;2.60;;;;;;;;;;5058709;28;20212;-88
2022/01/18 05:28:57;;;;;;;19.83;4.05;;;;;;;;;;5059324;28;20047;-87
2022/01/18 05:31:23;;;;;;;14.43;3.08;;;;;;;;;;5068037;28;20051;-87
2022/01/18 05:33:49;;;;;;;18.45;3.03;;;;;;;;;;5063552;28;20044;-87
2022/01/18 05:36:15;;;;;;;18.75;4.05;;;;;;;;;;5078281;28;20036;-87
2022/01/18 05:38:41;;;;;;;19.85;2.90;;;;;;;;;;5074400;28;20029;-88
2022/01/18 05:41:09;;;;;;;19.75;3.40;;;;;;;;;;5059553;28;20132;-87
2022/01/18 05:43:35;;;;;;;18.83;3.50;;;;;;;;;;5059674;28;20044;-87
2022/01/18 05:46:02;;;;;;;17.70;3.17;;;;;;;;;;5059984;28;20044;-87
2022/01/18 05:48:28;;;;;;;17.25;3.35;;;;;;;;;;5061358;28;20036;-87
2022/01/18 05:50:59;;;;;;;19.13;3.22;;;;;;;;;;5077852;28;20036;-87
2022/01/18 05:53:26;;;;;;;16.13;3.50;;;;;;;;;;5060744;28;20598;-87
2022/01/18 05:55:52;;;;;;;17.58;3.25;;;;;;;;;;5059764;28;20047;-87
2022/01/18 05:58:19;;;;;;;15.43;3.30;;;;;;;;;;5075539;28;20062;-87
2022/01/18 06:00:52;;;;;;;14.52;2.70;;;;;;;;;;5058978;28;20044;-88
2022/01/18 06:03:26;;;;;;;17.15;3.17;;;;;;;;;;5060684;28;20407;-88
2022/01/18 06:08:37;;;;;;;15.80;3.17;;;;;;;;;;5059955;28;20090;-87
2022/01/18 06:11:03;;;;;;;12.05;2.50;;;;;;;;;;5062908;28;20040;-87
2022/01/18 06:13:30;;;;;;;17.73;2.78;;;;;;;;;;5080769;28;20503;-87
2022/01/18 06:15:56;;;;;;;22.58;3.80;;;;;;;;;;5063857;28;20036;-87
2022/01/18 06:18:22;;;;;;;13.02;2.80;;;;;;;;;;5063377;28;20075;-87
2022/01/18 06:20:48;;;;;;;17.83;3.75;;;;;;;;;;5113571;28;20052;-87
2022/01/18 06:23:15;;;;;;;17.83;4.25;;;;;;;;;;5079671;28;20055;-87
2022/01/18 06:25:42;;;;;;;27.30;12.95;;;;;;;;;;5113293;28;20131;-87
2022/01/18 06:28:08;;;;;;;23.70;10.10;;;;;;;;;;5097207;28;20247;-88
2022/01/18 06:30:35;;;;;;;48.60;25.85;;;;;;;;;;5080369;28;20041;-87
2022/01/18 06:33:01;;;;;;;42.25;21.40;;;;;;;;;;5080733;28;20075;-88
2022/01/18 06:35:27;;;;;;;28.05;12.02;;;;;;;;;;5080393;28;20039;-87
2022/01/18 06:37:53;;;;;;;24.52;7.70;;;;;;;;;;5081238;28;20036;-87
2022/01/18 06:40:20;;;;;;;20.60;7.70;;;;;;;;;;5079794;28;20036;-87
2022/01/18 06:42:46;;;;;;;33.80;14.25;;;;;;;;;;5079922;28;20044;-87
2022/01/18 06:45:12;;;;;;;34.42;18.63;;;;;;;;;;5096024;28;20085;-87
2022/01/18 06:47:39;;;;;;;27.02;11.82;;;;;;;;;;5096248;28;20501;-86
2022/01/18 06:50:06;;;;;;;29.33;14.52;;;;;;;;;;5078711;28;20066;-87
2022/01/18 06:52:32;;;;;;;40.08;20.50;;;;;;;;;;5078102;28;20036;-87
2022/01/18 06:55:00;;;;;;;56.13;30.42;;;;;;;;;;5078578;28;20067;-87
2022/01/18 06:57:27;;;;;;;49.83;32.55;;;;;;;;;;5077808;28;20044;-87
2022/01/18 06:59:53;;;;;;;50.17;28.30;;;;;;;;;;5078610;28;20134;-87
2022/01/18 07:02:20;;;;;;;47.83;27.90;;;;;;;;;;5077607;28;20040;-87
2022/01/18 07:04:46;;;;;;;51.00;24.30;;;;;;;;;;5077765;28;20044;-87
2022/01/18 07:07:12;;;;;;;40.83;23.73;;;;;;;;;;5061004;28;20390;-87
2022/01/18 07:09:38;;;;;;;34.53;18.27;;;;;;;;;;5079643;28;20130;-87
2022/01/18 07:12:10;;;;;;;35.53;19.83;;;;;;;;;;5082021;28;20044;-87
2022/01/18 07:14:36;;;;;;;36.42;19.05;;;;;;;;;;5064526;28;20047;-87
2022/01/18 07:17:02;;;;;;;25.42;12.55;;;;;;;;;;5089486;28;20439;-87
2022/01/18 07:19:31;;;;;;;15.43;6.25;;;;;;;;;;5106250;28;20426;-87
2022/01/18 07:21:57;;;;;;;24.00;11.00;;;;;;;;;;5069414;28;20036;-87
2022/01/18 07:27:22;;;;;;;32.58;17.90;;;;;;;;;;5020213;28;20077;-87
2022/01/18 07:29:48;;;;;;;27.40;15.65;;;;;;;;;;5058644;28;20412;-87
2022/01/18 07:32:14;;;;;;;23.50;12.07;;;;;;;;;;5084714;28;20130;-87
2022/01/18 07:34:49;;;;;;;23.10;12.65;;;;;;;;;;5057309;28;20036;-87
2022/01/18 07:37:16;;;;;;;22.83;11.40;;;;;;;;;;5079308;28;20044;-87
2022/01/18 07:39:42;;;;;;;23.15;10.27;;;;;;;;;;5073197;28;20063;-87
2022/01/18 07:42:09;;;;;;;30.40;9.52;;;;;;;;;;5094010;28;20077;-88
2022/01/18 07:44:35;;;;;;;15.32;6.22;;;;;;;;;;5082095;28;20061;-88
2022/01/18 07:47:01;;;;;;;16.45;6.68;;;;;;;;;;5117998;28;20039;-87
2022/01/18 07:49:28;;;;;;;15.90;6.25;;;;;;;;;;5063319;28;20123;-88
2022/01/18 07:51:54;;;;;;;21.92;5.90;;;;;;;;;;5073261;28;20060;-89
2022/01/18 07:54:20;;;;;;;16.88;5.78;;;;;;;;;;5075926;28;20047;-89
2022/01/18 07:56:46;;;;;;;18.38;6.03;;;;;;;;;;5085666;28;20487;-89
2022/01/18 07:59:13;;;;;;;17.20;4.65;;;;;;;;;;5082333;28;20039;-88
2022/01/18 08:01:41;;;;;;;17.83;4.45;;;;;;;;;;5060858;28;20044;-87
2022/01/18 08:04:07;;;;;;;13.93;3.92;;;;;;;;;;5061051;28;20093;-90
2022/01/18 08:06:33;;;;;;;13.32;3.47;;;;;;;;;;5089567;28;20040;-89
2022/01/18 08:09:00;;;;;;;17.75;3.78;;;;;;;;;;5078501;28;20072;-88
2022/01/18 08:11:26;;;;;;;16.00;3.22;;;;;;;;;;5062934;28;20079;-88
2022/01/18 08:13:52;;;;;;;14.52;3.58;;;;;;;;;;5076978;28;20076;-88
2022/01/18 08:19:00;;;;;;;15.88;3.60;;;;;;;;;;5115561;28;20093;-89
2022/01/18 08:21:36;;;;;;;14.27;3.20;;;;;;;;;;5061973;28;20035;-89
2022/01/18 08:24:02;;;;;;;14.68;3.28;;;;;;;;;;5075813;28;20036;-90
2022/01/18 08:26:28;;;;;;;17.77;3.65;;;;;;;;;;5094006;28;20566;-90
2022/01/18 08:28:54;;;;;;;17.55;4.63;;;;;;;;;;5088735;28;20044;-90
2022/01/18 08:31:20;;;;;;;15.30;3.40;;;;;;;;;;5067346;28;20546;-90
2022/01/18 08:33:47;;;;;;;13.73;4.18;;;;;;;;;;5060745;28;20113;-89
2022/01/18 08:36:13;;;;;;;11.93;3.72;;;;;;;;;;5064358;28;20035;-90
2022/01/18 08:38:40;;;;;;;14.85;3.70;;;;;;;;;;5070261;28;20123;-89
2022/01/18 08:41:06;;;;;;;16.13;3.45;;;;;;;;;;5068013;28;20694;-89
2022/01/18 08:43:35;;;;;;;12.15;4.22;;;;;;;;;;5065062;28;20043;-89
2022/01/18 08:46:03;;;;;;;18.13;4.57;;;;;;;;;;5063344;28;20107;-88
2022/01/18 08:48:30;;;;;;;16.13;4.00;;;;;;;;;;5073942;28;20099;-90
2022/01/18 08:50:57;;;;;;;18.55;4.78;;;;;;;;;;5061352;28;20035;-88
2022/01/18 08:53:23;;;;;;;18.55;4.70;;;;;;;;;;5064933;28;20114;-88
2022/01/18 08:55:49;;;;;;;16.67;4.63;;;;;;;;;;5089046;28;20076;-88
2022/01/18 08:58:16;;;;;;;15.35;4.53;;;;;;;;;;5089161;28;20069;-89
2022/01/18 09:00:42;;;;;;;15.07;4.43;;;;;;;;;;5068368;28;20075;-89
2022/01/18 09:03:10;;;;;;;19.08;4.60;;;;;;;;;;5063668;28;20184;-89
2022/01/18 09:05:38;;;;;;;18.42;4.82;;;;;;;;;;5098985;28;20036;-89
2022/01/18 09:08:06;;;;;;;15.30;4.72;;;;;;;;;;5099271;28;20044;-88
2022/01/18 09:10:33;;;;;;;15.40;4.78;;;;;;;;;;5073064;28;20040;-89
2022/01/18 09:12:59;;;;;;;13.85;4.30;;;;;;;;;;5111920;28;20083;-89
2022/01/18 09:15:26;;;;;;;19.02;4.80;;;;;;;;;;5066841;28;20481;-88
2022/01/18 09:17:52;;;;;;;16.23;4.47;;;;;;;;;;5077807;28;20416;-89
2022/01/18 09:20:19;;;;;;;15.10;4.40;;;;;;;;;;5062229;28;20526;-89
2022/01/18 09:22:46;;;;;;;9.90;3.45;;;;;;;;;;5066725;28;20044;-89
2022/01/18 09:25:39;;;;;;;13.60;4.10;;;;;;;;;;5077878;28;20042;-89
2022/01/18 09:28:05;;;;;;;11.82;4.30;;;;;;;;;;5081317;28;20043;-88
2022/01/18 09:30:33;;;;;;;13.45;3.50;;;;;;;;;;5085936;28;20043;-89
2022/01/18 09:32:59;;;;;;;11.32;3.75;;;;;;;;;;5101649;28;20044;-89
2022/01/18 09:35:26;;;;;;;12.15;3.60;;;;;;;;;;5080031;28;20492;-90
2022/01/18 09:37:52;;;;;;;12.18;3.55;;;;;;;;;;5080489;28;20039;-89
2022/01/18 09:40:20;;;;;;;13.80;3.22;;;;;;;;;;5101602;28;20047;-89
2022/01/18 09:42:52;;;;;;;8.27;2.70;;;;;;;;;;5075200;28;20094;-89
2022/01/18 09:45:18;;;;;;;10.35;3.05;;;;;;;;;;5075991;28;20520;-90
2022/01/18 09:47:46;;;;;;;9.18;2.33;;;;;;;;;;5078346;28;20040;-90
2022/01/18 09:50:14;;;;;;;8.80;2.50;;;;;;;;;;5093796;28;20032;-91
2022/01/18 09:52:41;;;;;;;11.27;2.38;;;;;;;;;;5078931;28;20396;-90
2022/01/18 09:55:08;;;;;;;11.27;2.20;;;;;;;;;;5110676;28;20035;-88
2022/01/18 09:57:35;;;;;;;10.35;2.28;;;;;;;;;;5064573;28;20043;-89
2022/01/18 10:00:01;;;;;;;12.68;3.13;;;;;;;;;;5063876;28;20126;-90
2022/01/18 10:02:27;;;;;;;16.08;3.38;;;;;;;;;;5073147;28;20046;-89
2022/01/18 10:05:23;;;;;;;14.68;3.83;;;;;;;;;;5069554;28;20043;-90
2022/01/18 10:08:06;;;;;;;12.40;2.72;;;;;;;;;;5088479;28;20499;-89
2022/01/18 10:10:39;;;;;;;9.77;2.65;;;;;;;;;;5100090;28;20376;-89
2022/01/18 10:13:07;;;;;;;15.48;3.58;;;;;;;;;;5063107;28;20072;-88
2022/01/18 10:15:34;;;;;;;11.85;3.20;;;;;;;;;;5062137;28;20101;-88
2022/01/18 10:18:04;;;;;;;12.63;3.17;;;;;;;;;;5062587;28;20109;-89
2022/01/18 10:20:33;;;;;;;12.85;3.65;;;;;;;;;;5064937;28;20499;-88
2022/01/18 10:23:00;;;;;;;13.35;3.95;;;;;;;;;;5085485;28;20076;-89
2022/01/18 10:25:27;;;;;;;13.43;3.92;;;;;;;;;;5088961;28;20040;-89
2022/01/18 10:27:55;;;;;;;13.82;4.18;;;;;;;;;;5077043;28;20047;-88
2022/01/18 10:30:35;;;;;;;14.48;4.63;;;;;;;;;;5069927;28;20123;-88
2022/01/18 10:33:12;;;;;;;12.63;3.55;;;;;;;;;;5064109;28;20036;-89
2022/01/18 10:36:00;;;;;;;13.95;3.83;;;;;;;;;;5070933;28;20036;-89
2022/01/18 10:38:26;;;;;;;12.85;3.88;;;;;;;;;;5102540;28;20128;-89
2022/01/18 10:40:53;;;;;;;15.10;4.30;;;;;;;;;;5076571;28;20032;-89
2022/01/18 10:43:33;;;;;;;14.35;4.00;;;;;;;;;;5085587;28;20047;-89
2022/01/18 10:46:16;;;;;;;12.25;3.67;;;;;;;;;;5089594;28;20116;-88
2022/01/18 10:48:48;;;;;;;11.20;3.20;;;;;;;;;;5091891;28;20089;-90
2022/01/18 10:51:37;;;;;;;14.98;3.95;;;;;;;;;;5061707;28;20032;-89
2022/01/18 10:54:33;;;;;;;14.23;4.32;;;;;;;;;;5092319;28;20051;-89
2022/01/18 10:57:01;;;;;;;15.80;3.92;;;;;;;;;;5116588;28;20047;-90
2022/01/18 11:02:20;;;;;;;15.98;3.70;;;;;;;;;;5113549;28;20090;-91
2022/01/18 11:04:56;;;;;;;11.00;3.35;;;;;;;;;;5115230;28;20048;-89
2022/01/18 11:07:27;;;;;;;12.50;4.07;;;;;;;;;;5095699;28;20096;-89
2022/01/18 11:10:12;;;;;;;17.25;3.53;;;;;;;;;;5110291;28;20431;-89
2022/01/18 11:12:45;;;;;;;17.25;4.40;;;;;;;;;;5096696;28;20491;-88
2022/01/18 11:15:17;;;;;;;14.77;4.03;;;;;;;;;;5096355;28;20036;-89
2022/01/18 11:17:50;;;;;;;17.08;3.85;;;;;;;;;;5062254;28;20040;-90
2022/01/18 11:20:17;;;;;;;13.63;4.03;;;;;;;;;;5079960;28;20040;-89
2022/01/18 11:22:44;;;;;;;14.13;3.30;;;;;;;;;;5064199;28;20076;-89
2022/01/18 11:25:10;;;;;;;11.50;3.17;;;;;;;;;;5099585;28;20048;-88
2022/01/18 11:27:39;;;;;;;12.90;3.08;;;;;;;;;;5061644;28;20567;-88
2022/01/18 11:30:07;;;;;;;16.00;3.63;;;;;;;;;;5097949;28;20048;-90
2022/01/18 11:32:34;;;;;;;11.13;2.97;;;;;;;;;;5111873;28;20040;-88
2022/01/18 11:35:03;;;;;;;15.23;4.05;;;;;;;;;;5096238;28;20050;-89
2022/01/18 11:37:32;;;;;;;14.32;4.07;;;;;;;;;;5111719;28;20036;-89
2022/01/18 11:40:04;;;;;;;13.13;3.33;;;;;;;;;;5112848;28;20403;-88
2022/01/18 11:42:39;;;;;;;14.23;3.35;;;;;;;;;;5114284;28;20040;-89
2022/01/18 11:45:28;;;;;;;12.93;3.78;;;;;;;;;;5096426;28;20499;-90
2022/01/18 11:48:13;;;;;;;13.63;3.78;;;;;;;;;;5096583;28;20051;-90
2022/01/18 11:50:44;;;;;;;10.73;3.40;;;;;;;;;;5060627;28;20097;-88
2022/01/18 11:53:40;;;;;;;13.50;3.42;;;;;;;;;;5057774;28;20043;-89
2022/01/18 11:56:11;;;;;;;10.25;3.60;;;;;;;;;;5042180;28;20492;-90
2022/01/18 11:58:38;;;;;;;13.55;3.85;;;;;;;;;;5092983;28;20530;-88
2022/01/18 12:01:04;;;;;;;17.13;3.67;;;;;;;;;;5094925;28;20035;-91
2022/01/18 12:03:32;;;;;;;11.95;3.80;;;;;;;;;;5060513;28;20036;-90
2022/01/18 12:06:01;;;;;;;13.68;4.15;;;;;;;;;;5058226;28;20048;-89
2022/01/18 12:09:00;;;;;;;12.55;3.30;;;;;;;;;;5073848;28;20479;-89
2022/01/18 12:11:51;;;;;;;11.38;3.70;;;;;;;;;;5091663;28;20044;-88
2022/01/18 12:14:34;;;;;;;12.23;3.67;;;;;;;;;;5092222;28;20290;-92
2022/01/18 12:17:14;;;;;;;16.10;3.75;;;;;;;;;;5056632;28;20039;-89
2022/01/18 12:19:44;;;;;;;15.98;4.22;;;;;;;;;;5058179;28;20513;-88
2022/01/18 12:22:11;;;;;;;13.73;3.63;;;;;;;;;;5111829;28;20050;-89
2022/01/18 12:24:47;;;;;;;14.75;3.47;;;;;;;;;;5059542;28;20100;-89
2022/01/18 12:27:27;;;;;;;13.80;4.47;;;;;;;;;;5060232;28;20090;-89
2022/01/18 12:30:15;;;;;;;15.02;3.47;;;;;;;;;;5039154;28;20037;-90
2022/01/18 12:32:56;;;;;;;14.05;3.72;;;;;;;;;;5099959;28;20089;-90
2022/01/18 12:35:26;;;;;;;11.77;3.42;;;;;;;;;;5059953;28;20032;-89
2022/01/18 12:37:53;;;;;;;16.23;3.33;;;;;;;;;;5059659;28;20498;-90
2022/01/18 12:40:24;;;;;;;14.52;4.30;;;;;;;;;;5060110;28;20074;-88
2022/01/18 12:45:38;;;;;;;12.88;3.13;;;;;;;;;;5076498;28;20526;-88
2022/01/18 12:48:05;;;;;;;14.68;3.33;;;;;;;;;;5089000;28;20036;-91
2022/01/18 12:50:33;;;;;;;15.48;3.33;;;;;;;;;;5073055;28;20044;-90
2022/01/18 12:53:07;;;;;;;10.25;2.97;;;;;;;;;;5075165;28;20043;-91
2022/01/18 12:55:41;;;;;;;10.27;3.35;;;;;;;;;;5094273;28;20483;-90
2022/01/18 12:58:07;;;;;;;;;;;;;;;;;;5093973;28;20123;-90
2022/01/18 13:01:09;;;;;;;17.50;3.80;;;;;;;;;;5091229;28;19923;-92
2022/01/18 13:03:43;;;;;;;12.20;3.35;;;;;;;;;;5031192;28;20040;-90
2022/01/18 13:06:10;;;;;;;12.00;4.45;;;;;;;;;;5049437;28;20425;-92
2022/01/18 13:08:47;;;;;;;12.13;3.22;;;;;;;;;;5107062;28;20054;-90
2022/01/18 13:11:14;;;;;;;8.48;3.60;;;;;;;;;;5056232;28;20489;-90
2022/01/18 13:13:48;;;;;;;13.25;3.22;;;;;;;;;;5046207;28;20453;-90
2022/01/18 13:26:55;;;;;;;12.27;4.35;;;;;;;;;;5059622;28;20043;-88
2022/01/18 13:29:26;;;;;;;11.90;4.20;;;;;;;;;;5089712;28;20155;-89
2022/01/18 13:32:00;;;;;;;14.93;4.95;;;;;;;;;;5074645;28;20082;-90
2022/01/18 13:34:34;;;;;;;14.70;5.18;;;;;;;;;;5090358;28;20115;-89
2022/01/18 13:37:05;;;;;;;15.98;5.07;;;;;;;;;;5088216;28;20040;-89
2022/01/18 13:39:51;;;;;;;14.70;4.70;;;;;;;;;;5075859;28;20075;-88
2022/01/18 13:42:20;;;;;;;12.75;4.68;;;;;;;;;;5079709;28;20040;-88
2022/01/18 13:45:06;;;;;;;17.13;5.07;;;;;;;;;;5097479;28;20036;-88
2022/01/18 13:47:33;;;;;;;;;;;;;;;;;;5062697;28;20043;-88
2022/01/18 13:50:00;;;;;;;14.65;5.07;;;;;;;;;;5091222;28;19974;-88
2022/01/18 13:52:34;;;;;;;16.10;4.82;;;;;;;;;;5078920;28;20044;-88
2022/01/18 13:55:02;;;;;;;17.08;4.53;;;;;;;;;;5096297;28;20048;-88
2022/01/18 13:57:28;;;;;;;16.25;4.95;;;;;;;;;;5062742;28;20040;-90
2022/01/18 13:59:56;;;;;;;15.57;5.13;;;;;;;;;;5062319;28;20028;-88
2022/01/18 14:02:26;;;;;;;18.58;5.13;;;;;;;;;;5079041;28;20361;-89
2022/01/18 14:05:22;;;;;;;16.92;6.18;;;;;;;;;;5078096;28;20079;-88
2022/01/18 14:08:29;;;;;;;19.07;6.53;;;;;;;;;;5078742;28;20036;-89
2022/01/18 14:11:19;;;;;;;16.20;5.63;;;;;;;;;;5080714;28;20135;-89
2022/01/18 14:13:53;;;;;;;17.45;5.53;;;;;;;;;;5111109;28;20399;-89
2022/01/18 14:16:21;;;;;;;19.10;6.20;;;;;;;;;;5054524;28;20037;-89
2022/01/18 14:18:55;;;;;;;16.77;5.90;;;;;;;;;;5059317;28;20040;-89
2022/01/18 14:21:38;;;;;;;14.43;6.05;;;;;;;;;;5035661;28;20479;-89
2022/01/18 14:24:50;;;;;;;14.18;6.18;;;;;;;;;;5067932;28;20528;-88
2022/01/18 14:27:25;;;;;;;14.90;5.70;;;;;;;;;;4940135;29;20130;-88
2022/01/18 14:30:02;;;;;;;20.27;6.97;;;;;;;;;;4939607;29;20039;-89
2022/01/18 14:32:30;;;;;;;17.23;6.28;;;;;;;;;;5023046;28;20619;-90
2022/01/18 14:35:06;;;;;;;14.63;5.78;;;;;;;;;;5028720;28;20047;-90
2022/01/18 14:37:47;;;;;;;17.05;5.82;;;;;;;;;;5027097;28;20049;-90
2022/01/18 14:40:13;;;;;;;14.63;5.70;;;;;;;;;;5039911;28;20258;-91
2022/01/18 14:42:44;;;;;;;19.73;7.15;;;;;;;;;;5015466;28;20056;-89
2022/01/18 14:48:05;;;;;;;14.32;5.63;;;;;;;;;;5042391;28;20120;-88
2022/01/18 14:51:08;;;;;;;17.67;5.15;;;;;;;;;;4975959;28;20047;-89
2022/01/18 14:53:51;;;;;;;15.07;5.82;;;;;;;;;;4986537;28;20082;-89
2022/01/18 14:56:17;;;;;;;13.77;5.30;;;;;;;;;;4986534;28;20050;-90
2022/01/18 14:58:44;;;;;;;18.38;6.00;;;;;;;;;;4981349;28;20067;-90
2022/01/18 15:01:10;;;;;;;22.10;5.55;;;;;;;;;;4965279;28;20051;-88
2022/01/18 15:03:36;;;;;;;16.65;6.05;;;;;;;;;;4962081;28;20035;-90
2022/01/18 15:06:03;;;;;;;15.57;6.43;;;;;;;;;;4975941;28;20051;-90
2022/01/18 15:08:30;;;;;;;16.88;6.55;;;;;;;;;;4984845;28;20062;-91
2022/01/18 15:10:57;;;;;;;16.92;6.82;;;;;;;;;;4961199;28;20418;-89
2022/01/18 15:13:23;;;;;;;22.05;6.97;;;;;;;;;;4994573;28;20129;-90
2022/01/18 15:15:50;;;;;;;19.23;6.82;;;;;;;;;;5009037;28;20145;-90
2022/01/18 15:18:16;;;;;;;17.63;6.80;;;;;;;;;;4991727;28;20092;-90
2022/01/18 15:20:42;;;;;;;18.50;6.65;;;;;;;;;;4985282;28;20046;-90
2022/01/18 15:23:09;;;;;;;19.95;6.95;;;;;;;;;;5043048;28;20060;-91
2022/01/18 15:25:37;;;;;;;17.88;7.13;;;;;;;;;;5037567;28;20071;-90
2022/01/18 15:28:03;;;;;;;19.63;7.30;;;;;;;;;;5011314;28;21106;-90
2022/01/18 15:30:32;;;;;;;17.95;6.95;;;;;;;;;;5002314;28;20038;-89
2022/01/18 15:33:01;;;;;;;17.00;7.13;;;;;;;;;;5016740;28;20088;-89
2022/01/18 15:35:27;;;;;;;22.88;6.57;;;;;;;;;;5014866;28;20500;-89
2022/01/18 15:37:53;;;;;;;18.88;7.35;;;;;;;;;;5006256;28;20068;-89
2022/01/18 15:40:19;;;;;;;20.90;8.20;;;;;;;;;;4995862;28;20041;-88
2022/01/18 15:42:46;;;;;;;20.20;7.15;;;;;;;;;;5002857;28;20049;-91
2022/01/18 15:45:12;;;;;;;21.13;8.25;;;;;;;;;;5020342;28;20476;-93
2022/01/18 15:47:39;;;;;;;24.10;8.80;;;;;;;;;;5052956;28;20054;-90
2022/01/18 15:50:05;;;;;;;18.63;7.93;;;;;;;;;;5060300;28;20051;-88
2022/01/18 15:52:31;;;;;;;22.45;8.35;;;;;;;;;;5064955;28;20047;-89
2022/01/18 15:54:58;;;;;;;19.25;8.45;;;;;;;;;;5064017;28;20027;-91
2022/01/18 15:57:24;;;;;;;20.75;8.38;;;;;;;;;;5063836;28;20063;-91
2022/01/18 15:59:51;;;;;;;19.55;8.23;;;;;;;;;;5075883;28;20440;-90
2022/01/18 16:02:17;;;;;;;21.65;8.48;;;;;;;;;;5064634;28;20071;-89
2022/01/18 16:04:44;;;;;;;26.25;10.05;;;;;;;;;;5069049;28;20492;-90
2022/01/18 16:07:13;;;;;;;25.15;10.65;;;;;;;;;;5067026;28;20028;-89